Time,TemperatureF,DewpointF,PressureIn,WindDirection,WindDirectionDegrees,WindSpeedMPH,WindSpeedGustMPH,Humidity,HourlyPrecipIn,Conditions,Clouds,dailyrainin,SoftwareType,DateUTC
2013-04-16 00:00:00,62.4,61.8,30.21,NE,45,0.0,0.0,98,0.00,CLR,,0.62,WeatherDisplay:10.37,2013-04-16 04:00:00,
2013-04-16 00:05:00,62.4,61.8,30.21,NE,45,0.0,0.0,98,0.00,RA,,0.00,WeatherDisplay:10.37,2013-04-16 04:05:00,
2013-04-16 00:10:00,62.4,61.8,30.21,NNE,22,2.3,2.3,98,0.00,CLR,,0.00,WeatherDisplay:10.37,2013-04-16 04:10:00,
2013-04-16 00:15:00,62.6,62.0,30.21,NNW,338,3.5,3.5,98,0.00,CLR,,0.00,WeatherDisplay:10.37,2013-04-16 04:15:00,
2013-04-16 00:20:00,62.6,62.0,30.09,North,0,0.0,-999.0,98,-99.99,,,0.00,Acu-Link.com,2013-04-16 04:20:00,
2013-04-16 00:25:00,62.6,62.0,30.21,North,360,0.0,0.0,98,0.00,CLR,,0.00,WeatherDisplay:10.37,2013-04-16 04:25:00,
2013-04-16 00:30:00,62.6,62.0,30.20,North,360,0.0,0.0,98,0.00,CLR,,0.00,WeatherDisplay:10.37,2013-04-16 04:30:00,
2013-04-16 00:35:00,62.6,62.0,30.20,North,360,0.0,0.0,98,0.00,CLR,,0.00,WeatherDisplay:10.37,2013-04-16 04:35:00,
2013-04-16 00:40:00,62.6,62.0,30.21,East,90,2.3,2.3,98,0.00,CLR,,0.00,WeatherDisplay:10.37,2013-04-16 04:40:00,
2013-04-16 00:45:00,62.6,62.0,30.21,East,90,2.3,2.3,98,0.00,CLR,,0.00,WeatherDisplay:10.37,2013-04-16 04:45:00,
2013-04-16 00:50:00,62.6,62.0,30.21,North,360,3.8,3.8,98,0.00,CLR,,0.00,WeatherDisplay:10.37,2013-04-16 04:50:00,
2013-04-16 00:55:00,62.6,62.0,30.20,North,360,3.5,3.5,98,0.00,CLR,,0.00,WeatherDisplay:10.37,2013-04-16 04:55:00,
2013-04-16 01:00:00,62.6,62.0,30.20,ENE,68,4.7,4.7,98,0.00,CLR,,0.00,WeatherDisplay:10.37,2013-04-16 05:00:00,
2013-04-16 01:05:00,62.6,62.0,30.20,ESE,112,5.6,5.6,98,0.00,CLR,,0.00,WeatherDisplay:10.37,2013-04-16 05:05:00,
2013-04-16 01:10:00,62.6,62.0,30.20,East,90,4.6,4.6,98,0.00,CLR,,0.00,WeatherDisplay:10.37,2013-04-16 05:10:00,
2013-04-16 01:15:00,62.6,62.0,30.20,ENE,68,5.6,5.6,98,0.00,CLR,,0.00,WeatherDisplay:10.37,2013-04-16 05:15:00,
2013-04-16 01:20:00,62.6,62.0,30.20,East,90,6.9,6.9,98,0.00,CLR,,0.00,WeatherDisplay:10.37,2013-04-16 05:20:00,
2013-04-16 01:25:00,62.6,62.0,30.20,East,90,4.6,4.6,98,0.00,CLR,,0.00,WeatherDisplay:10.37,2013-04-16 05:25:00,
2013-04-16 01:30:00,62.6,62.0,30.20,NE,45,3.5,3.5,98,0.00,CLR,,0.00,WeatherDisplay:10.37,2013-04-16 05:30:00,
2013-04-16 01:35:00,62.6,62.0,30.20,East,90,0.0,0.0,98,0.00,CLR,,0.00,WeatherDisplay:10.37,2013-04-16 05:35:00,
2013-04-16 01:40:00,62.6,62.0,30.20,WNW,292,0.0,0.0,98,0.00,CLR,,0.00,WeatherDisplay:10.37,2013-04-16 05:40:00,
2013-04-16 01:45:00,62.6,62.0,30.20,ESE,112,8.3,8.3,98,0.00,CLR,,0.00,WeatherDisplay:10.37,2013-04-16 05:45:00,
2013-04-16 01:50:00,62.6,62.0,30.20,ESE,112,9.2,9.2,98,0.00,CLR,,0.00,WeatherDisplay:10.37,2013-04-16 05:50:00,
2013-04-16 01:55:00,62.4,61.8,30.20,East,90,5.8,5.8,98,0.00,CLR,,0.00,WeatherDisplay:10.37,2013-04-16 05:55:00,
2013-04-16 02:00:00,62.4,61.8,30.20,NNE,22,7.4,7.4,98,0.00,CLR,,0.00,WeatherDisplay:10.37,2013-04-16 06:00:00,
2013-04-16 02:05:00,62.4,61.8,30.19,East,90,6.9,6.9,98,0.00,CLR,,0.00,WeatherDisplay:10.37,2013-04-16 06:05:00,
2013-04-16 02:10:00,62.4,61.8,30.19,ENE,68,9.2,9.2,98,0.00,CLR,,0.00,WeatherDisplay:10.37,2013-04-16 06:10:00,
2013-04-16 02:15:00,62.4,61.8,30.19,East,90,6.9,6.9,98,0.00,CLR,,0.00,WeatherDisplay:10.37,2013-04-16 06:15:00,
2013-04-16 02:20:00,62.4,61.8,30.19,ENE,68,4.6,4.6,98,0.00,CLR,,0.00,WeatherDisplay:10.37,2013-04-16 06:20:00,
2013-04-16 02:25:00,62.4,61.8,30.19,NE,45,4.7,4.7,98,0.00,CLR,,0.00,WeatherDisplay:10.37,2013-04-16 06:25:00,
2013-04-16 02:30:00,62.2,61.6,30.19,East,90,8.3,8.3,98,0.00,CLR,,0.00,WeatherDisplay:10.37,2013-04-16 06:30:00,
2013-04-16 02:35:00,62.2,61.6,30.19,ESE,112,8.3,8.3,98,0.00,CLR,,0.00,WeatherDisplay:10.37,2013-04-16 06:35:00,
2013-04-16 02:40:00,62.2,61.6,30.19,NNE,22,4.7,4.7,98,0.00,CLR,,0.00,WeatherDisplay:10.37,2013-04-16 06:40:00,
2013-04-16 02:45:00,62.2,61.6,30.19,North,360,4.6,4.6,98,0.00,CLR,,0.00,WeatherDisplay:10.37,2013-04-16 06:45:00,
2013-04-16 02:50:00,62.2,61.6,30.19,NE,45,4.6,4.6,98,0.00,CLR,,0.00,WeatherDisplay:10.37,2013-04-16 06:50:00,
2013-04-16 02:55:00,62.2,61.6,30.19,ESE,112,9.2,9.2,98,0.00,CLR,,0.00,WeatherDisplay:10.37,2013-04-16 06:55:00,
2013-04-16 03:00:00,62.2,61.6,30.19,East,90,6.9,6.9,98,0.00,CLR,,0.00,WeatherDisplay:10.37,2013-04-16 07:00:00,
2013-04-16 03:05:00,62.4,61.8,30.20,East,90,9.2,9.2,98,0.00,CLR,,0.00,WeatherDisplay:10.37,2013-04-16 07:05:00,
2013-04-16 03:10:00,62.4,61.8,30.20,NE,45,5.8,5.8,98,0.00,CLR,,0.00,WeatherDisplay:10.37,2013-04-16 07:10:00,
2013-04-16 03:15:00,62.4,61.8,30.20,ENE,68,6.9,7.0,98,0.00,CLR,,0.00,WeatherDisplay:10.37,2013-04-16 07:15:00,
2013-04-16 03:20:00,62.2,61.6,30.20,East,90,6.9,6.9,98,0.00,CLR,,0.00,WeatherDisplay:10.37,2013-04-16 07:20:00,
2013-04-16 03:25:00,62.2,61.6,30.20,East,90,3.8,3.8,98,0.00,CLR,,0.00,WeatherDisplay:10.37,2013-04-16 07:25:00,
2013-04-16 03:30:00,62.2,61.6,30.20,ENE,68,4.6,4.6,98,0.00,CLR,,0.00,WeatherDisplay:10.37,2013-04-16 07:30:00,
2013-04-16 03:36:00,62.4,61.8,30.20,NE,45,4.6,0.0,98,0.00,CLR,,0.00,WeatherDisplay:10.37,2013-04-16 07:36:00,
2013-04-16 03:41:00,62.4,61.8,30.20,East,90,5.8,5.8,98,0.00,CLR,,0.00,WeatherDisplay:10.37,2013-04-16 07:41:00,
2013-04-16 03:46:00,62.4,61.8,30.20,ENE,68,3.5,3.5,98,0.00,CLR,,0.00,WeatherDisplay:10.37,2013-04-16 07:46:00,
2013-04-16 03:51:00,62.4,61.8,30.20,ESE,112,8.3,8.3,98,0.00,CLR,,0.00,WeatherDisplay:10.37,2013-04-16 07:51:00,
2013-04-16 03:56:00,62.4,61.8,30.20,NE,45,6.9,6.9,98,0.00,CLR,,0.00,WeatherDisplay:10.37,2013-04-16 07:56:00,
2013-04-16 04:01:00,62.4,61.8,30.20,ESE,112,7.4,7.4,98,0.00,CLR,,0.00,WeatherDisplay:10.37,2013-04-16 08:01:00,
2013-04-16 04:06:00,62.4,61.8,30.20,East,90,6.9,6.9,98,0.00,CLR,,0.00,WeatherDisplay:10.37,2013-04-16 08:06:00,
2013-04-16 04:11:00,62.6,62.0,30.20,ENE,68,3.5,3.5,98,0.00,CLR,,0.00,WeatherDisplay:10.37,2013-04-16 08:11:00,
2013-04-16 04:16:00,62.6,62.0,30.20,ENE,68,3.5,3.5,98,0.00,CLR,,0.00,WeatherDisplay:10.37,2013-04-16 08:16:00,
2013-04-16 04:21:00,62.6,62.0,30.20,East,90,4.6,4.6,98,0.00,CLR,,0.00,WeatherDisplay:10.37,2013-04-16 08:21:00,
2013-04-16 04:26:00,62.8,62.2,30.20,East,90,6.5,6.5,98,0.00,CLR,,0.00,WeatherDisplay:10.37,2013-04-16 08:26:00,
2013-04-16 04:31:00,62.8,62.2,30.20,East,90,4.6,4.6,98,0.00,CLR,,0.00,WeatherDisplay:10.37,2013-04-16 08:31:00,
2013-04-16 04:36:00,62.8,62.2,30.20,ENE,68,4.7,6.6,98,0.00,CLR,,0.00,WeatherDisplay:10.37,2013-04-16 08:36:00,
2013-04-16 04:41:00,63.0,62.4,30.20,East,90,7.4,7.4,98,0.00,CLR,,0.00,WeatherDisplay:10.37,2013-04-16 08:41:00,
2013-04-16 04:46:00,63.0,62.4,30.20,East,90,5.8,5.8,98,0.00,CLR,,0.00,WeatherDisplay:10.37,2013-04-16 08:46:00,
2013-04-16 04:51:00,63.0,62.4,30.21,ENE,68,9.2,9.2,98,0.00,CLR,,0.00,WeatherDisplay:10.37,2013-04-16 08:51:00,
2013-04-16 04:56:00,63.0,62.4,30.21,NNE,22,4.6,4.6,98,0.00,CLR,,0.00,WeatherDisplay:10.37,2013-04-16 08:56:00,
2013-04-16 05:02:00,63.0,62.4,30.21,ENE,68,5.8,5.8,98,0.00,CLR,,0.00,WeatherDisplay:10.37,2013-04-16 09:02:00,
2013-04-16 05:07:00,63.0,62.4,30.21,North,360,5.8,5.8,98,0.00,CLR,,0.00,WeatherDisplay:10.37,2013-04-16 09:07:00,
2013-04-16 05:12:00,63.0,62.4,30.21,East,90,4.6,4.6,98,0.00,CLR,,0.00,WeatherDisplay:10.37,2013-04-16 09:12:00,
2013-04-16 05:17:00,63.1,62.5,30.21,East,90,8.1,8.1,98,0.00,CLR,,0.00,WeatherDisplay:10.37,2013-04-16 09:17:00,
2013-04-16 05:22:00,63.1,62.5,30.21,NE,45,4.6,4.6,98,0.00,CLR,,0.00,WeatherDisplay:10.37,2013-04-16 09:22:00,
2013-04-16 05:27:00,63.3,62.7,30.22,NNE,22,5.8,5.8,98,0.00,CLR,,0.00,WeatherDisplay:10.37,2013-04-16 09:27:00,
2013-04-16 05:32:00,63.3,62.7,30.22,East,90,5.6,5.6,98,0.00,CLR,,0.00,WeatherDisplay:10.37,2013-04-16 09:32:00,
2013-04-16 05:37:00,63.3,62.7,30.22,ENE,68,8.1,8.1,98,0.00,CLR,,0.00,WeatherDisplay:10.37,2013-04-16 09:37:00,
2013-04-16 05:42:00,63.3,62.7,30.22,NNE,22,8.1,8.1,98,0.00,CLR,,0.00,WeatherDisplay:10.37,2013-04-16 09:42:00,
2013-04-16 05:47:00,63.3,62.7,30.22,East,90,7.4,7.4,98,0.00,CLR,,0.00,WeatherDisplay:10.37,2013-04-16 09:47:00,
2013-04-16 05:52:00,63.5,62.9,30.22,ESE,112,5.6,5.6,98,0.00,CLR,,0.00,WeatherDisplay:10.37,2013-04-16 09:52:00,
2013-04-16 05:57:00,63.5,62.9,30.22,NE,45,5.8,5.8,98,0.00,CLR,,0.00,WeatherDisplay:10.37,2013-04-16 09:57:00,
2013-04-16 06:02:00,63.5,62.9,30.22,ENE,68,7.4,7.4,98,0.00,CLR,,0.00,WeatherDisplay:10.37,2013-04-16 10:02:00,
2013-04-16 06:07:00,63.5,62.9,30.22,ENE,68,6.9,6.9,98,0.00,CLR,,0.00,WeatherDisplay:10.37,2013-04-16 10:07:00,
2013-04-16 06:12:00,63.7,63.1,30.22,East,90,9.2,9.2,98,0.00,CLR,,0.00,WeatherDisplay:10.37,2013-04-16 10:12:00,
2013-04-16 06:17:00,63.7,63.1,30.23,East,90,6.5,6.5,98,0.00,CLR,,0.00,WeatherDisplay:10.37,2013-04-16 10:17:00,
2013-04-16 06:22:00,63.7,63.1,30.23,East,90,4.6,4.6,98,0.00,CLR,,0.00,WeatherDisplay:10.37,2013-04-16 10:22:00,
2013-04-16 06:27:00,63.7,63.1,30.23,East,90,5.8,5.8,98,0.00,CLR,,0.00,WeatherDisplay:10.37,2013-04-16 10:27:00,
2013-04-16 06:32:00,63.7,63.1,30.23,East,90,6.9,6.9,98,0.00,CLR,,0.00,WeatherDisplay:10.37,2013-04-16 10:32:00,
2013-04-16 06:37:00,63.7,63.1,30.23,East,90,4.6,4.6,98,0.00,CLR,,0.00,WeatherDisplay:10.37,2013-04-16 10:37:00,
2013-04-16 06:42:00,63.7,63.1,30.23,East,90,5.8,5.8,98,0.00,CLR,,0.00,WeatherDisplay:10.37,2013-04-16 10:42:00,
2013-04-16 06:47:00,63.7,63.1,30.23,East,90,6.9,6.9,98,0.00,CLR,,0.00,WeatherDisplay:10.37,2013-04-16 10:47:00,
2013-04-16 06:52:00,63.7,63.1,30.23,East,90,5.8,5.8,98,0.00,CLR,,0.00,WeatherDisplay:10.37,2013-04-16 10:52:00,
2013-04-16 06:57:00,63.7,63.1,30.23,East,90,6.5,6.5,98,0.00,CLR,,0.00,WeatherDisplay:10.37,2013-04-16 10:57:00,
2013-04-16 07:02:00,63.7,63.1,30.24,ENE,68,2.3,2.3,98,0.00,CLR,,0.00,WeatherDisplay:10.37,2013-04-16 11:02:00,
2013-04-16 07:07:00,63.7,63.1,30.24,ENE,68,0.0,0.0,98,0.00,CLR,,0.00,WeatherDisplay:10.37,2013-04-16 11:07:00,
2013-04-16 07:12:00,63.7,63.1,30.24,ENE,68,0.0,0.0,98,0.00,CLR,,0.00,WeatherDisplay:10.37,2013-04-16 11:12:00,
2013-04-16 07:17:00,63.7,63.1,30.24,NE,45,3.5,3.5,98,0.00,CLR,,0.00,WeatherDisplay:10.37,2013-04-16 11:17:00,
2013-04-16 07:22:00,63.9,63.3,30.24,NE,45,0.0,0.0,98,0.00,CLR,,0.00,WeatherDisplay:10.37,2013-04-16 11:22:00,
2013-04-16 07:27:00,63.9,63.3,30.25,NE,45,0.0,0.0,98,0.00,CLR,,0.00,WeatherDisplay:10.37,2013-04-16 11:27:00,
2013-04-16 07:32:00,64.0,63.4,30.25,NE,45,0.0,0.0,98,0.00,CLR,,0.00,WeatherDisplay:10.37,2013-04-16 11:32:00,
2013-04-16 07:37:00,64.0,63.4,30.25,NE,45,0.0,0.0,98,0.00,CLR,,0.00,WeatherDisplay:10.37,2013-04-16 11:37:00,
2013-04-16 07:42:00,64.0,63.4,30.25,NE,45,0.0,0.0,98,0.00,CLR,,0.00,WeatherDisplay:10.37,2013-04-16 11:42:00,
2013-04-16 07:47:00,64.2,63.6,30.25,NE,45,0.0,0.0,98,0.00,CLR,,0.00,WeatherDisplay:10.37,2013-04-16 11:47:00,
2013-04-16 07:52:00,64.2,63.6,30.26,NE,45,0.0,0.0,98,0.00,CLR,,0.00,WeatherDisplay:10.37,2013-04-16 11:52:00,
2013-04-16 07:57:00,64.4,63.8,30.26,NE,45,0.0,0.0,98,0.00,CLR,,0.00,WeatherDisplay:10.37,2013-04-16 11:57:00,
2013-04-16 08:02:00,64.4,63.8,30.26,NE,45,2.9,2.9,98,0.00,CLR,,0.00,WeatherDisplay:10.37,2013-04-16 12:02:00,
2013-04-16 08:07:00,64.4,63.8,30.26,NE,45,0.0,0.0,98,0.00,CLR,,0.00,WeatherDisplay:10.37,2013-04-16 12:07:00,
2013-04-16 08:12:00,64.6,64.0,30.26,NNE,22,3.5,3.5,98,0.00,CLR,,0.00,WeatherDisplay:10.37,2013-04-16 12:12:00,
2013-04-16 08:17:00,64.6,64.0,30.26,NNE,22,3.5,3.5,98,0.00,CLR,,0.00,WeatherDisplay:10.37,2013-04-16 12:17:00,
2013-04-16 08:22:00,65.1,64.5,30.26,NNE,22,3.5,3.5,98,0.00,CLR,,0.00,WeatherDisplay:10.37,2013-04-16 12:22:00,
2013-04-16 08:27:00,65.3,64.7,30.26,NNE,22,3.5,3.5,98,0.00,CLR,,0.00,WeatherDisplay:10.37,2013-04-16 12:27:00,
2013-04-16 08:32:00,65.5,64.9,30.26,East,90,3.8,3.8,98,0.00,CLR,,0.00,WeatherDisplay:10.37,2013-04-16 12:32:00,
2013-04-16 08:37:00,66.0,65.4,30.26,East,90,3.8,3.8,98,0.00,CLR,,0.00,WeatherDisplay:10.37,2013-04-16 12:37:00,
2013-04-16 08:42:00,66.2,65.6,30.26,NE,45,6.9,6.9,98,0.00,CLR,,0.00,WeatherDisplay:10.37,2013-04-16 12:42:00,
2013-04-16 08:47:00,66.4,65.8,30.26,East,90,6.9,6.9,98,0.00,CLR,,0.00,WeatherDisplay:10.37,2013-04-16 12:47:00,
2013-04-16 08:52:00,66.9,66.3,30.26,ENE,68,6.9,6.9,98,0.00,CLR,,0.00,WeatherDisplay:10.37,2013-04-16 12:52:00,
2013-04-16 08:57:00,67.5,66.9,30.26,ESE,112,7.4,7.4,98,0.00,CLR,,0.00,WeatherDisplay:10.37,2013-04-16 12:57:00,
2013-04-16 09:02:00,67.8,65.4,30.26,East,90,10.1,10.1,92,0.00,CLR,,0.00,WeatherDisplay:10.37,2013-04-16 13:02:00,
2013-04-16 09:07:00,68.2,65.5,30.26,NW,315,6.9,6.9,91,0.00,CLR,,0.00,WeatherDisplay:10.37,2013-04-16 13:07:00,
2013-04-16 09:12:00,68.5,64.8,30.26,East,90,9.2,9.2,88,0.00,CLR,,0.00,WeatherDisplay:10.37,2013-04-16 13:12:00,
2013-04-16 09:17:00,68.9,65.2,30.26,ENE,68,9.2,9.2,88,0.00,CLR,,0.00,WeatherDisplay:10.37,2013-04-16 13:17:00,
2013-04-16 09:22:00,69.3,65.6,30.26,East,90,8.1,8.1,88,0.00,CLR,,0.00,WeatherDisplay:10.37,2013-04-16 13:22:00,
2013-04-16 09:28:00,69.4,65.4,30.26,East,90,8.3,8.3,87,0.00,CLR,,0.00,WeatherDisplay:10.37,2013-04-16 13:28:00,
2013-04-16 09:33:00,69.4,65.4,30.26,NNW,338,6.9,6.9,87,0.00,CLR,,0.00,WeatherDisplay:10.37,2013-04-16 13:33:00,
2013-04-16 09:38:00,69.8,65.8,30.26,NNE,22,6.9,6.9,87,0.00,CLR,,0.00,WeatherDisplay:10.37,2013-04-16 13:38:00,
2013-04-16 09:43:00,69.8,65.8,30.26,WNW,292,6.9,6.9,87,0.00,CLR,,0.00,WeatherDisplay:10.37,2013-04-16 13:43:00,
2013-04-16 09:48:00,70.2,65.8,30.26,East,90,6.9,6.9,86,0.00,CLR,,0.00,WeatherDisplay:10.37,2013-04-16 13:48:00,
2013-04-16 09:53:00,70.2,65.8,30.27,NNE,22,6.9,7.3,86,0.00,CLR,,0.00,WeatherDisplay:10.37,2013-04-16 13:53:00,
2013-04-16 09:58:00,70.7,65.6,30.27,ESE,112,10.4,10.4,84,0.00,CLR,,0.00,WeatherDisplay:10.37,2013-04-16 13:58:00,
2013-04-16 10:03:00,71.1,66.0,30.27,ESE,112,10.4,10.4,84,0.00,CLR,,0.00,WeatherDisplay:10.37,2013-04-16 14:03:00,
2013-04-16 10:08:00,71.2,66.1,30.27,East,90,8.3,8.3,84,0.00,CLR,,0.00,WeatherDisplay:10.37,2013-04-16 14:08:00,
2013-04-16 10:13:00,71.4,65.3,30.27,NE,45,8.3,8.3,81,0.00,CLR,,0.00,WeatherDisplay:10.37,2013-04-16 14:13:00,
2013-04-16 10:18:00,71.6,65.5,30.27,East,90,9.2,9.2,81,0.00,CLR,,0.00,WeatherDisplay:10.37,2013-04-16 14:18:00,
2013-04-16 10:23:00,72.0,65.8,30.27,ENE,68,7.4,7.4,81,0.00,CLR,,0.00,WeatherDisplay:10.37,2013-04-16 14:23:00,
2013-04-16 10:28:00,71.6,65.5,30.27,NE,45,12.7,12.7,81,0.00,CLR,,0.00,WeatherDisplay:10.37,2013-04-16 14:28:00,
2013-04-16 10:33:00,70.9,65.5,30.27,ENE,68,9.2,9.2,83,0.00,CLR,,0.00,WeatherDisplay:10.37,2013-04-16 14:33:00,
2013-04-16 10:38:00,71.2,65.4,30.27,NNE,22,6.9,6.9,82,0.00,CLR,,0.00,WeatherDisplay:10.37,2013-04-16 14:38:00,
2013-04-16 10:43:00,71.1,65.7,30.28,NE,45,11.5,11.5,83,0.00,CLR,,0.00,WeatherDisplay:10.37,2013-04-16 14:43:00,
2013-04-16 10:48:00,71.2,66.1,30.28,NE,45,8.1,8.1,84,0.00,CLR,,0.00,WeatherDisplay:10.37,2013-04-16 14:48:00,
2013-04-16 10:53:00,71.4,66.0,30.28,East,90,6.9,6.9,83,0.00,CLR,,0.00,WeatherDisplay:10.37,2013-04-16 14:53:00,
2013-04-16 10:58:00,71.6,65.5,30.28,East,90,11.0,11.0,81,0.00,CLR,,0.00,WeatherDisplay:10.37,2013-04-16 14:58:00,
2013-04-16 11:03:00,71.6,65.5,30.28,ENE,68,10.4,10.4,81,0.00,CLR,,0.00,WeatherDisplay:10.37,2013-04-16 15:03:00,
2013-04-16 11:08:00,72.5,66.7,30.28,ENE,68,7.4,7.4,82,0.00,CLR,,0.00,WeatherDisplay:10.37,2013-04-16 15:08:00,
2013-04-16 11:13:00,73.0,67.2,30.28,NNE,22,6.9,6.9,82,0.00,CLR,,0.00,WeatherDisplay:10.37,2013-04-16 15:13:00,
2013-04-16 11:18:00,72.5,66.0,30.28,East,90,10.4,10.4,80,0.00,CLR,,0.00,WeatherDisplay:10.37,2013-04-16 15:18:00,
2013-04-16 11:23:00,72.9,65.6,30.28,NE,45,10.4,10.4,78,0.00,CLR,,0.00,WeatherDisplay:10.37,2013-04-16 15:23:00,
2013-04-16 11:28:00,73.9,65.9,30.29,SE,135,8.1,8.1,76,0.00,CLR,,0.00,WeatherDisplay:10.37,2013-04-16 15:28:00,
2013-04-16 11:33:00,74.7,65.5,30.29,South,180,6.9,6.9,73,0.00,CLR,,0.00,WeatherDisplay:10.37,2013-04-16 15:33:00,
2013-04-16 11:38:00,74.5,65.3,30.29,NNW,338,6.9,6.9,73,0.00,CLR,,0.00,WeatherDisplay:10.37,2013-04-16 15:38:00,
2013-04-16 11:43:00,73.9,64.3,30.29,SSE,158,9.2,9.2,72,0.00,CLR,,0.00,WeatherDisplay:10.37,2013-04-16 15:43:00,
2013-04-16 11:48:00,74.5,64.9,30.29,SSE,158,11.9,11.9,72,0.00,CLR,,0.00,WeatherDisplay:10.37,2013-04-16 15:48:00,
2013-04-16 11:53:00,73.9,64.7,30.29,NE,45,5.6,5.6,73,0.00,CLR,,0.00,WeatherDisplay:10.37,2013-04-16 15:53:00,
2013-04-16 11:58:00,74.1,64.1,30.29,SSE,158,6.9,6.9,71,0.00,CLR,,0.00,WeatherDisplay:10.37,2013-04-16 15:58:00,
2013-04-16 12:03:00,73.8,64.2,30.28,NE,45,9.2,9.2,72,0.00,CLR,,0.00,WeatherDisplay:10.37,2013-04-16 16:03:00,
2013-04-16 12:08:00,74.3,64.3,30.28,SE,135,6.9,6.9,71,0.00,CLR,,0.00,WeatherDisplay:10.37,2013-04-16 16:08:00,
2013-04-16 12:13:00,74.1,63.7,30.28,ENE,68,3.5,3.5,70,0.00,CLR,,0.00,WeatherDisplay:10.37,2013-04-16 16:13:00,
2013-04-16 12:18:00,74.7,63.9,30.29,WNW,292,11.5,11.5,69,0.00,CLR,,0.00,WeatherDisplay:10.37,2013-04-16 16:18:00,
2013-04-16 12:23:00,74.8,63.5,30.29,ESE,112,11.5,11.5,68,0.00,CLR,,0.00,WeatherDisplay:10.37,2013-04-16 16:23:00,
2013-04-16 12:28:00,75.4,64.1,30.28,ESE,112,7.4,7.4,68,0.00,CLR,,0.00,WeatherDisplay:10.37,2013-04-16 16:28:00,
2013-04-16 12:33:00,75.4,63.2,30.28,SE,135,6.9,6.9,66,0.00,CLR,,0.00,WeatherDisplay:10.37,2013-04-16 16:33:00,
2013-04-16 12:38:00,75.0,62.9,30.28,ESE,112,3.8,3.8,66,0.00,CLR,,0.00,WeatherDisplay:10.37,2013-04-16 16:38:00,
2013-04-16 12:43:00,75.4,63.7,30.28,East,90,3.5,3.5,67,0.00,CLR,,0.00,WeatherDisplay:10.37,2013-04-16 16:43:00,
2013-04-16 12:48:00,74.7,62.6,30.28,ENE,68,8.1,8.1,66,0.00,CLR,,0.00,WeatherDisplay:10.37,2013-04-16 16:48:00,
2013-04-16 12:53:00,74.8,62.2,30.28,East,90,8.1,8.1,65,0.00,CLR,,0.00,WeatherDisplay:10.37,2013-04-16 16:53:00,
2013-04-16 12:58:00,74.8,62.7,30.28,East,90,6.9,6.9,66,0.00,CLR,,0.00,WeatherDisplay:10.37,2013-04-16 16:58:00,
2013-04-16 13:03:00,74.8,61.8,30.28,South,180,7.4,7.4,64,0.00,CLR,,0.00,WeatherDisplay:10.37,2013-04-16 17:03:00,
2013-04-16 13:08:00,74.8,62.7,30.28,South,180,5.8,5.8,66,0.00,CLR,,0.00,WeatherDisplay:10.37,2013-04-16 17:08:00,
2013-04-16 13:13:00,75.0,62.4,30.28,SE,135,11.5,11.5,65,0.00,CLR,,0.00,WeatherDisplay:10.37,2013-04-16 17:13:00,
2013-04-16 13:18:00,75.4,61.9,30.27,East,90,10.4,10.4,63,0.00,CLR,,0.00,WeatherDisplay:10.37,2013-04-16 17:18:00,
2013-04-16 13:23:00,75.7,62.7,30.27,East,90,8.3,8.3,64,0.00,CLR,,0.00,WeatherDisplay:10.37,2013-04-16 17:23:00,
2013-04-16 13:28:00,75.6,62.1,30.27,East,90,6.9,6.9,63,0.00,CLR,,0.00,WeatherDisplay:10.37,2013-04-16 17:28:00,
2013-04-16 13:33:00,76.6,61.7,30.27,ENE,68,11.0,11.0,60,0.00,CLR,,0.00,WeatherDisplay:10.37,2013-04-16 17:33:00,
2013-04-16 13:38:00,76.3,61.9,30.27,SE,135,10.4,10.4,61,0.00,CLR,,0.00,WeatherDisplay:10.37,2013-04-16 17:38:00,
2013-04-16 13:43:00,76.5,62.0,30.27,SE,135,10.4,10.4,61,0.00,CLR,,0.00,WeatherDisplay:10.37,2013-04-16 17:43:00,
2013-04-16 13:48:00,76.8,61.9,30.27,WNW,292,6.9,6.9,60,0.00,CLR,,0.00,WeatherDisplay:10.37,2013-04-16 17:48:00,
2013-04-16 13:53:00,77.7,61.7,30.26,ENE,68,12.7,12.7,58,0.00,CLR,,0.00,WeatherDisplay:10.37,2013-04-16 17:53:00,
2013-04-16 13:58:00,78.1,62.6,30.26,SSW,202,4.6,4.6,59,0.00,CLR,,0.00,WeatherDisplay:10.37,2013-04-16 17:58:00,
2013-04-16 14:03:00,78.1,63.1,30.26,East,90,11.9,11.9,60,0.00,CLR,,0.00,WeatherDisplay:10.37,2013-04-16 18:03:00,
2013-04-16 14:08:00,77.0,61.6,30.26,ESE,112,8.3,8.3,59,0.00,CLR,,0.00,WeatherDisplay:10.37,2013-04-16 18:08:00,
2013-04-16 14:13:00,77.0,61.6,30.26,SSW,202,9.2,9.2,59,0.00,CLR,,0.00,WeatherDisplay:10.37,2013-04-16 18:13:00,
2013-04-16 14:18:00,78.6,61.6,30.26,SSE,158,12.7,12.7,56,0.00,CLR,,0.00,WeatherDisplay:10.37,2013-04-16 18:18:00,
2013-04-16 14:23:00,78.8,63.3,30.26,East,90,8.1,8.1,59,0.00,CLR,,0.00,WeatherDisplay:10.37,2013-04-16 18:23:00,
2013-04-16 14:28:00,77.2,61.8,30.26,SE,135,16.4,16.4,59,0.00,CLR,,0.00,WeatherDisplay:10.37,2013-04-16 18:28:00,
2013-04-16 14:33:00,77.7,62.2,30.26,ENE,68,15.0,15.0,59,0.00,CLR,,0.00,WeatherDisplay:10.37,2013-04-16 18:33:00,
2013-04-16 14:38:00,78.4,63.4,30.26,SSW,202,6.9,6.9,60,0.00,CLR,,0.00,WeatherDisplay:10.37,2013-04-16 18:38:00,
2013-04-16 14:43:00,77.4,61.9,30.26,East,90,17.3,17.3,59,0.00,CLR,,0.00,WeatherDisplay:10.37,2013-04-16 18:43:00,
2013-04-16 14:48:00,75.9,61.9,30.26,SE,135,6.9,6.9,62,0.00,CLR,,0.00,WeatherDisplay:10.37,2013-04-16 18:48:00,
2013-04-16 14:53:00,77.2,62.2,30.25,ENE,68,16.1,16.1,60,0.00,CLR,,0.00,WeatherDisplay:10.37,2013-04-16 18:53:00,
2013-04-16 14:58:00,77.9,62.4,30.25,NE,45,12.7,12.7,59,0.00,CLR,,0.00,WeatherDisplay:10.37,2013-04-16 18:58:00,
2013-04-16 15:03:00,77.7,62.2,30.25,NNE,22,10.4,10.4,59,0.00,CLR,,0.00,WeatherDisplay:10.37,2013-04-16 19:03:00,
2013-04-16 15:08:00,77.4,61.5,30.25,SSE,158,6.9,6.9,58,0.00,CLR,,0.00,WeatherDisplay:10.37,2013-04-16 19:08:00,
2013-04-16 15:14:00,76.6,60.7,30.25,SSE,158,11.5,11.5,58,0.00,CLR,,0.00,WeatherDisplay:10.37,2013-04-16 19:14:00,
2013-04-16 15:19:00,77.4,61.5,30.25,SE,135,6.5,6.5,58,0.00,CLR,,0.00,WeatherDisplay:10.37,2013-04-16 19:19:00,
2013-04-16 15:24:00,77.9,60.9,30.25,SSE,158,6.9,6.9,56,0.00,CLR,,0.00,WeatherDisplay:10.37,2013-04-16 19:24:00,
2013-04-16 15:29:00,78.1,61.6,30.25,SW,225,5.8,5.8,57,0.00,CLR,,0.00,WeatherDisplay:10.37,2013-04-16 19:29:00,
2013-04-16 15:34:00,78.1,60.1,30.25,ESE,112,8.3,8.3,54,0.00,CLR,,0.00,WeatherDisplay:10.37,2013-04-16 19:34:00,
2013-04-16 15:39:00,77.7,61.3,30.25,East,90,6.5,6.5,57,0.00,CLR,,0.00,WeatherDisplay:10.37,2013-04-16 19:39:00,
2013-04-16 15:44:00,76.8,60.9,30.25,East,90,11.9,11.9,58,0.00,CLR,,0.00,WeatherDisplay:10.37,2013-04-16 19:44:00,
2013-04-16 15:49:00,76.8,60.4,30.25,SE,135,4.7,4.7,57,0.00,CLR,,0.00,WeatherDisplay:10.37,2013-04-16 19:49:00,
2013-04-16 15:54:00,76.6,60.7,30.25,South,180,9.2,9.2,58,0.00,CLR,,0.00,WeatherDisplay:10.37,2013-04-16 19:54:00,
2013-04-16 15:59:00,76.5,60.1,30.25,ENE,68,6.9,6.9,57,0.00,CLR,,0.00,WeatherDisplay:10.37,2013-04-16 19:59:00,
2013-04-16 16:04:00,76.3,60.9,30.25,SW,225,6.9,6.9,59,0.00,CLR,,0.00,WeatherDisplay:10.37,2013-04-16 20:04:00,
2013-04-16 16:09:00,76.1,60.2,30.25,SSW,202,7.4,7.4,58,0.00,CLR,,0.00,WeatherDisplay:10.37,2013-04-16 20:09:00,
2013-04-16 16:14:00,76.1,60.2,30.25,South,180,10.4,10.4,58,0.00,CLR,,0.00,WeatherDisplay:10.37,2013-04-16 20:14:00,
2013-04-16 16:19:00,76.3,59.9,30.25,South,180,3.5,3.5,57,0.00,CLR,,0.00,WeatherDisplay:10.37,2013-04-16 20:19:00,
2013-04-16 16:24:00,76.3,60.4,30.25,ESE,112,3.5,3.5,58,0.00,CLR,,0.00,WeatherDisplay:10.37,2013-04-16 20:24:00,
2013-04-16 16:29:00,76.5,60.6,30.25,ESE,112,6.9,6.9,58,0.00,CLR,,0.00,WeatherDisplay:10.37,2013-04-16 20:29:00,
2013-04-16 16:34:00,75.7,60.8,30.25,ESE,112,6.9,6.9,60,0.00,CLR,,0.00,WeatherDisplay:10.37,2013-04-16 20:34:00,
2013-04-16 16:39:00,76.1,61.2,30.25,SSW,202,2.9,0.0,60,0.00,CLR,,0.00,WeatherDisplay:10.37,2013-04-16 20:39:00,
2013-04-16 16:44:00,75.7,60.8,30.25,SE,135,6.9,6.9,60,0.00,CLR,,0.00,WeatherDisplay:10.37,2013-04-16 20:44:00,
2013-04-16 16:49:00,74.7,59.9,30.25,South,180,11.5,11.5,60,0.00,CLR,,0.00,WeatherDisplay:10.37,2013-04-16 20:49:00,
2013-04-16 16:54:00,74.3,60.0,30.25,SSE,158,8.3,8.3,61,0.00,CLR,,0.00,WeatherDisplay:10.37,2013-04-16 20:54:00,
2013-04-16 16:59:00,74.1,59.8,30.25,East,90,6.9,6.9,61,0.00,CLR,,0.00,WeatherDisplay:10.37,2013-04-16 20:59:00,
2013-04-16 17:04:00,74.7,60.4,30.25,NNE,22,5.6,5.6,61,0.00,CLR,,0.00,WeatherDisplay:10.37,2013-04-16 21:04:00,
2013-04-16 17:09:00,74.1,59.3,30.25,SSE,158,9.2,9.2,60,0.00,CLR,,0.00,WeatherDisplay:10.37,2013-04-16 21:09:00,
2013-04-16 17:14:00,74.3,60.0,30.25,South,180,7.4,7.4,61,0.00,CLR,,0.00,WeatherDisplay:10.37,2013-04-16 21:14:00,
2013-04-16 17:19:00,74.1,58.9,30.25,ESE,112,6.9,6.9,59,0.00,CLR,,0.00,WeatherDisplay:10.37,2013-04-16 21:19:00,
2013-04-16 17:24:00,73.9,58.7,30.25,ENE,68,6.9,6.9,59,0.00,CLR,,0.00,WeatherDisplay:10.37,2013-04-16 21:24:00,
2013-04-16 17:29:00,73.9,58.7,30.25,SSE,158,8.3,8.3,59,0.00,CLR,,0.00,WeatherDisplay:10.37,2013-04-16 21:29:00,
2013-04-16 17:34:00,73.6,58.9,30.25,NNE,22,9.2,9.2,60,0.00,CLR,,0.00,WeatherDisplay:10.37,2013-04-16 21:34:00,
2013-04-16 17:39:00,73.4,59.6,30.25,ESE,112,4.6,4.6,62,0.00,CLR,,0.00,WeatherDisplay:10.37,2013-04-16 21:39:00,
2013-04-16 17:44:00,73.2,58.9,30.25,South,180,11.5,11.5,61,0.00,CLR,,0.00,WeatherDisplay:10.37,2013-04-16 21:44:00,
2013-04-16 17:49:00,73.0,58.3,30.25,ESE,112,4.6,4.6,60,0.00,CLR,,0.00,WeatherDisplay:10.37,2013-04-16 21:49:00,
2013-04-16 17:54:00,72.9,57.7,30.25,SE,135,6.9,6.9,59,0.00,CLR,,0.00,WeatherDisplay:10.37,2013-04-16 21:54:00,
2013-04-16 17:59:00,72.9,57.7,30.25,SSW,202,6.9,6.9,59,0.00,CLR,,0.00,WeatherDisplay:10.37,2013-04-16 21:59:00,
2013-04-16 18:04:00,72.5,57.4,30.25,ESE,112,8.1,8.1,59,0.00,CLR,,0.00,WeatherDisplay:10.37,2013-04-16 22:04:00,
2013-04-16 18:09:00,72.5,57.8,30.25,WNW,292,4.6,4.6,60,0.00,CLR,,0.00,WeatherDisplay:10.37,2013-04-16 22:09:00,
2013-04-16 18:14:00,72.5,57.8,30.25,East,90,6.9,6.9,60,0.00,CLR,,0.00,WeatherDisplay:10.37,2013-04-16 22:14:00,
2013-04-16 18:19:00,72.1,57.9,30.25,ENE,68,9.2,9.2,61,0.00,CLR,,0.00,WeatherDisplay:10.37,2013-04-16 22:19:00,
2013-04-16 18:24:00,71.8,58.5,30.25,NE,45,8.1,8.1,63,0.00,CLR,,0.00,WeatherDisplay:10.37,2013-04-16 22:24:00,
2013-04-16 18:29:00,71.4,57.7,30.24,South,180,8.1,8.1,62,0.00,CLR,,0.00,WeatherDisplay:10.37,2013-04-16 22:29:00,
2013-04-16 18:34:00,71.4,58.1,30.24,ENE,68,4.7,4.7,63,0.00,CLR,,0.00,WeatherDisplay:10.37,2013-04-16 22:34:00,
2013-04-16 18:39:00,71.2,58.4,30.24,ESE,112,3.5,3.5,64,0.00,CLR,,0.00,WeatherDisplay:10.37,2013-04-16 22:39:00,
2013-04-16 18:44:00,70.9,58.5,30.24,East,90,3.5,3.5,65,0.00,CLR,,0.00,WeatherDisplay:10.37,2013-04-16 22:44:00,
2013-04-16 18:49:00,70.7,58.4,30.24,East,90,8.1,8.1,65,0.00,CLR,,0.00,WeatherDisplay:10.37,2013-04-16 22:49:00,
2013-04-16 18:54:00,70.5,58.6,30.24,SE,135,4.7,4.7,66,0.00,CLR,,0.00,WeatherDisplay:10.37,2013-04-16 22:54:00,
2013-04-16 18:59:00,70.2,58.7,30.24,ENE,68,8.3,8.3,67,0.00,CLR,,0.00,WeatherDisplay:10.37,2013-04-16 22:59:00,
2013-04-16 19:04:00,70.0,59.0,30.24,East,90,3.5,3.5,68,0.00,CLR,,0.00,WeatherDisplay:10.37,2013-04-16 23:04:00,
2013-04-16 19:09:00,69.8,59.2,30.24,ESE,112,3.8,3.8,69,0.00,CLR,,0.00,WeatherDisplay:10.37,2013-04-16 23:09:00,
2013-04-16 19:14:00,69.6,59.0,30.24,ENE,68,2.3,2.3,69,0.00,CLR,,0.00,WeatherDisplay:10.37,2013-04-16 23:14:00,
2013-04-16 19:19:00,69.4,59.2,30.24,ENE,68,5.8,5.8,70,0.00,CLR,,0.00,WeatherDisplay:10.37,2013-04-16 23:19:00,
2013-04-16 19:24:00,68.9,59.5,30.24,SSE,158,3.5,3.5,72,0.00,CLR,,0.00,WeatherDisplay:10.37,2013-04-16 23:24:00,
2013-04-16 19:29:00,68.5,59.5,30.24,SSE,158,0.0,0.0,73,0.00,CLR,,0.00,WeatherDisplay:10.37,2013-04-16 23:29:00,
2013-04-16 19:34:00,68.2,59.6,30.24,South,180,5.8,5.8,74,0.00,CLR,,0.00,WeatherDisplay:10.37,2013-04-16 23:34:00,
2013-04-16 19:39:00,68.0,59.8,30.24,South,180,3.5,3.5,75,0.00,CLR,,0.00,WeatherDisplay:10.37,2013-04-16 23:39:00,
2013-04-16 19:44:00,67.8,60.0,30.24,ESE,112,4.6,4.6,76,0.00,CLR,,0.00,WeatherDisplay:10.37,2013-04-16 23:44:00,
2013-04-16 19:49:00,67.6,60.1,30.24,ESE,112,4.6,4.6,77,0.00,CLR,,0.00,WeatherDisplay:10.37,2013-04-16 23:49:00,
2013-04-16 19:54:00,67.3,59.8,30.24,ESE,112,0.0,0.0,77,0.00,CLR,,0.00,WeatherDisplay:10.37,2013-04-16 23:54:00,
2013-04-16 19:59:00,66.9,59.8,30.24,ESE,112,2.3,0.0,78,0.00,CLR,,0.00,WeatherDisplay:10.37,2013-04-16 23:59:00,
2013-04-16 20:04:00,66.6,60.2,30.24,ESE,112,0.0,0.0,80,0.00,CLR,,0.00,WeatherDisplay:10.37,2013-04-17 00:04:00,
2013-04-16 20:09:00,66.4,60.4,30.24,NNE,22,2.0,2.0,81,0.00,CLR,,0.00,WeatherDisplay:10.37,2013-04-17 00:09:00,
2013-04-16 20:14:00,66.2,60.2,30.25,NNE,22,2.0,2.0,81,0.00,CLR,,0.00,WeatherDisplay:10.37,2013-04-17 00:14:00,
2013-04-16 20:19:00,66.0,60.3,30.25,East,90,4.6,4.6,82,0.00,CLR,,0.00,WeatherDisplay:10.37,2013-04-17 00:19:00,
2013-04-16 20:24:00,65.8,60.2,30.25,East,90,0.0,0.0,82,0.00,CLR,,0.00,WeatherDisplay:10.37,2013-04-17 00:24:00,
2013-04-16 20:29:00,65.7,60.7,30.25,East,90,3.5,3.5,84,0.00,CLR,,0.00,WeatherDisplay:10.37,2013-04-17 00:29:00,
2013-04-16 20:35:00,65.3,60.3,30.25,East,90,0.0,0.0,84,0.00,CLR,,0.00,WeatherDisplay:10.37,2013-04-17 00:35:00,
2013-04-16 20:40:00,65.1,60.1,30.25,East,90,0.0,0.0,84,0.00,CLR,,0.00,WeatherDisplay:10.37,2013-04-17 00:40:00,
2013-04-16 20:45:00,64.8,60.2,30.25,East,90,0.0,0.0,85,0.00,CLR,,0.00,WeatherDisplay:10.37,2013-04-17 00:45:00,
2013-04-16 20:50:00,64.4,59.8,30.25,East,90,0.0,0.0,85,0.00,CLR,,0.00,WeatherDisplay:10.37,2013-04-17 00:50:00,
2013-04-16 20:55:00,64.2,60.2,30.26,East,90,0.0,0.0,87,0.00,CLR,,0.00,WeatherDisplay:10.37,2013-04-17 00:55:00,
2013-04-16 21:00:00,63.9,60.0,30.13,East,90,0.0,-999.0,87,-99.99,,,0.00,Acu-Link.com,2013-04-17 01:00:00,
2013-04-16 21:05:00,63.7,60.1,30.26,East,90,0.0,0.0,88,0.00,CLR,,0.00,WeatherDisplay:10.37,2013-04-17 01:05:00,
2013-04-16 21:10:00,63.3,59.7,30.26,East,90,0.0,0.0,88,0.00,CLR,,0.00,WeatherDisplay:10.37,2013-04-17 01:10:00,
2013-04-16 21:15:00,63.1,59.5,30.26,East,90,0.0,0.0,88,0.00,CLR,,0.00,WeatherDisplay:10.37,2013-04-17 01:15:00,
2013-04-16 21:20:00,63.0,59.7,30.26,East,90,0.0,0.0,89,0.00,CLR,,0.00,WeatherDisplay:10.37,2013-04-17 01:20:00,
2013-04-16 21:25:00,62.8,59.8,30.26,East,90,0.0,0.0,90,0.00,CLR,,0.00,WeatherDisplay:10.37,2013-04-17 01:25:00,
2013-04-16 21:30:00,62.4,61.5,30.27,East,90,0.0,0.0,97,0.00,CLR,,0.00,WeatherDisplay:10.37,2013-04-17 01:30:00,
2013-04-16 21:35:00,62.2,61.6,30.27,East,90,0.0,0.0,98,0.00,CLR,,0.00,WeatherDisplay:10.37,2013-04-17 01:35:00,
2013-04-16 21:40:00,62.2,61.6,30.26,East,90,0.0,0.0,98,0.00,CLR,,0.00,WeatherDisplay:10.37,2013-04-17 01:40:00,
2013-04-16 21:45:00,62.1,61.5,30.26,East,90,0.0,0.0,98,0.00,CLR,,0.00,WeatherDisplay:10.37,2013-04-17 01:45:00,
2013-04-16 21:50:00,61.9,61.3,30.26,East,90,0.0,0.0,98,0.00,CLR,,0.00,WeatherDisplay:10.37,2013-04-17 01:50:00,
2013-04-16 21:55:00,61.7,61.1,30.26,East,90,0.0,0.0,98,0.00,CLR,,0.00,WeatherDisplay:10.37,2013-04-17 01:55:00,
2013-04-16 22:00:00,61.7,61.1,30.26,East,90,0.0,0.0,98,0.00,CLR,,0.00,WeatherDisplay:10.37,2013-04-17 02:00:00,
2013-04-16 22:05:00,61.5,60.9,30.27,East,90,0.0,0.0,98,0.00,CLR,,0.00,WeatherDisplay:10.37,2013-04-17 02:05:00,
2013-04-16 22:10:00,61.3,60.7,30.27,East,90,0.0,0.0,98,0.00,CLR,,0.00,WeatherDisplay:10.37,2013-04-17 02:10:00,
2013-04-16 22:15:00,61.3,60.7,30.26,East,90,0.0,0.0,98,0.00,CLR,,0.00,WeatherDisplay:10.37,2013-04-17 02:15:00,
2013-04-16 22:20:00,61.3,60.7,30.26,East,90,0.0,0.0,98,0.00,CLR,,0.00,WeatherDisplay:10.37,2013-04-17 02:20:00,
2013-04-16 22:25:00,61.2,60.6,30.26,East,90,0.0,0.0,98,0.00,CLR,,0.00,WeatherDisplay:10.37,2013-04-17 02:25:00,
2013-04-16 22:30:00,61.0,60.4,30.27,East,90,0.0,0.0,98,0.00,CLR,,0.00,WeatherDisplay:10.37,2013-04-17 02:30:00,
2013-04-16 22:35:00,60.8,60.2,30.27,East,90,0.0,0.0,98,0.00,CLR,,0.00,WeatherDisplay:10.37,2013-04-17 02:35:00,
2013-04-16 22:40:00,60.8,60.2,30.27,East,90,0.0,0.0,98,0.00,CLR,,0.00,WeatherDisplay:10.37,2013-04-17 02:40:00,
2013-04-16 22:45:00,60.6,60.0,30.27,East,90,0.0,0.0,98,0.00,CLR,,0.00,WeatherDisplay:10.37,2013-04-17 02:45:00,
2013-04-16 22:50:00,60.6,60.0,30.27,East,90,0.0,0.0,98,0.00,CLR,,0.00,WeatherDisplay:10.37,2013-04-17 02:50:00,
2013-04-16 22:55:00,60.4,59.8,30.26,East,90,0.0,0.0,98,0.00,CLR,,0.00,WeatherDisplay:10.37,2013-04-17 02:55:00,
2013-04-16 23:00:00,60.3,59.7,30.26,East,90,0.0,0.0,98,0.00,CLR,,0.00,WeatherDisplay:10.37,2013-04-17 03:00:00,
2013-04-16 23:05:00,60.3,59.7,30.25,East,90,0.0,0.0,98,0.00,CLR,,0.00,WeatherDisplay:10.37,2013-04-17 03:05:00,
2013-04-16 23:10:00,60.3,59.7,30.25,East,90,0.0,0.0,98,0.00,CLR,,0.00,WeatherDisplay:10.37,2013-04-17 03:10:00,
2013-04-16 23:15:00,60.1,59.5,30.25,East,90,0.0,0.0,98,0.00,CLR,,0.00,WeatherDisplay:10.37,2013-04-17 03:15:00,
2013-04-16 23:20:00,59.9,59.3,30.25,East,90,0.0,0.0,98,0.00,CLR,,0.00,WeatherDisplay:10.37,2013-04-17 03:20:00,
2013-04-16 23:25:00,59.9,59.3,30.25,East,90,0.0,0.0,98,0.00,CLR,,0.00,WeatherDisplay:10.37,2013-04-17 03:25:00,
2013-04-16 23:30:00,59.9,59.3,30.25,East,90,0.0,0.0,98,0.00,CLR,,0.00,WeatherDisplay:10.37,2013-04-17 03:30:00,
2013-04-16 23:35:00,59.7,59.1,30.25,East,90,0.0,0.0,98,0.00,CLR,,0.00,WeatherDisplay:10.37,2013-04-17 03:35:00,
2013-04-16 23:40:00,59.7,59.1,30.24,East,90,0.0,0.0,98,0.00,CLR,,0.00,WeatherDisplay:10.37,2013-04-17 03:40:00,
2013-04-16 23:45:00,59.9,59.3,30.24,East,90,0.0,0.0,98,0.00,CLR,,0.00,WeatherDisplay:10.37,2013-04-17 03:45:00,
2013-04-16 23:50:00,59.9,59.3,30.25,East,90,0.0,0.0,98,0.00,CLR,,0.00,WeatherDisplay:10.37,2013-04-17 03:50:00,
2013-04-16 23:55:00,59.7,59.1,30.25,East,90,0.0,0.0,98,0.00,CLR,,0.00,WeatherDisplay:10.37,2013-04-17 03:55:00,